Nissos Kythnos — SVBI9 — position and weather

sailwx.info

Track history (hours):
 
Tides and Currents Weather Stations Pressure Air Temp Water Temp Dewpoint Dewpoint Depression Visibility Wind Speed Wind Dir Waves Ship Positions

Nissos Kythnos

Last reported at 2018-Jun-22 14:59 UTC. Time now 2018-Jun-22 15:14 UTC.
Position N 44°36' E 037°53'.

Length 249 m; draft 8 m.

Type: Ship. MMSI: 241132000.

Date/timePositionNaut miles runAvg speedWind from/ knotsBaromVisibWave heightAir tempDewpointWater temp
2018-Jun-22 14:59N 44°36' E 037°53'0 0.0
2018-Jun-22 14:29N 44°36' E 037°53'0 0.0
2018-Jun-22 13:59N 44°36' E 037°53'0 0.0
2018-Jun-22 13:29N 44°36' E 037°53'0 0.0
2018-Jun-22 12:59N 44°36' E 037°53'0 0.0
2018-Jun-22 12:29N 44°36' E 037°53'0 0.0
2018-Jun-22 11:59N 44°36' E 037°53'0 0.1
2018-Jun-22 11:29N 44°36' E 037°54'0 0.0
2018-Jun-22 10:59N 44°36' E 037°54'0 0.1
2018-Jun-22 10:29N 44°36' E 037°53'0 0.0
2018-Jun-22 09:59N 44°36' E 037°53'0 0.0
2018-Jun-22 09:29N 44°36' E 037°53'0 0.0
2018-Jun-22 08:59N 44°36' E 037°54'0 0.0
2018-Jun-22 08:29N 44°36' E 037°53'0 0.0
2018-Jun-22 07:59N 44°36' E 037°53'0 0.0
2018-Jun-22 07:29N 44°36' E 037°54'0 0.0
2018-Jun-22 06:59N 44°36' E 037°54'0 0.1
2018-Jun-22 06:29N 44°36' E 037°53'0 0.1
2018-Jun-22 05:59N 44°36' E 037°53'0 0.1
2018-Jun-22 05:29N 44°36' E 037°53'0 0.1
2018-Jun-22 04:59N 44°36' E 037°53'0 0.0
2018-Jun-22 04:29N 44°36' E 037°53'0 0.0
2018-Jun-22 03:59N 44°36' E 037°53'0 0.0
2018-Jun-22 03:29N 44°36' E 037°53'0 0.0
2018-Jun-22 02:59N 44°36' E 037°53'0 0.0
2018-Jun-22 02:29N 44°36' E 037°53'0 0.0
2018-Jun-22 01:59N 44°36' E 037°53'0 0.0
2018-Jun-22 01:29N 44°36' E 037°53'0 0.1
2018-Jun-22 00:59N 44°36' E 037°53'0 0.0
2018-Jun-22 00:29N 44°36' E 037°53'0 0.0
2018-Jun-21 23:59N 44°36' E 037°53'0 0.0
2018-Jun-21 23:29N 44°36' E 037°53'0 0.0
2018-Jun-21 22:59N 44°36' E 037°53'0 0.1
2018-Jun-21 22:29N 44°36' E 037°53'0 0.1
2018-Jun-21 21:59N 44°36' E 037°54'0 0.1
2018-Jun-21 21:29N 44°36' E 037°54'0 0.0
2018-Jun-21 20:59N 44°36' E 037°54'0 0.0
2018-Jun-21 20:29N 44°36' E 037°54'0 0.0
2018-Jun-21 19:59N 44°36' E 037°54'0 0.0
2018-Jun-21 19:29N 44°36' E 037°54'0 0.1
2018-Jun-21 18:59N 44°36' E 037°54'0 0.1
2018-Jun-21 18:29N 44°36' E 037°54'0 0.0
2018-Jun-21 17:59N 44°36' E 037°54'0 0.0
2018-Jun-21 17:29N 44°36' E 037°54'0 0.0
2018-Jun-21 16:59N 44°36' E 037°54'0 0.1
2018-Jun-21 16:29N 44°36' E 037°54'0 0.1
2018-Jun-21 15:59N 44°36' E 037°54'0 0.2
2018-Jun-21 15:30N 44°36' E 037°53'1 2.3
2018-Jun-21 15:00N 44°36' E 037°52'2 3.1
2018-Jun-21 14:30N 44°35' E 037°50'3 5.5
2018-Jun-21 14:00N 44°32' E 037°48'4 7.9
2018-Jun-21 13:30N 44°30' E 037°44'5 9.4
2018-Jun-21 13:00N 44°28' E 037°38'5 9.4
2018-Jun-21 12:30N 44°25' E 037°32'5 9.4
2018-Jun-21 12:00N 44°23' E 037°26'5 9.4
2018-Jun-21 11:30N 44°21' E 037°20'5 9.6
2018-Jun-21 11:00N 44°19' E 037°15'5 9.7
2018-Jun-21 10:30N 44°17' E 037°08'5 9.7
2018-Jun-21 10:00N 44°15' E 037°02'5 9.5
2018-Jun-21 09:30N 44°12' E 036°56'5 9.5
2018-Jun-21 08:58N 44°10' E 036°50'4 9.4
2018-Jun-21 08:30N 44°09' E 036°44'5 9.4
2018-Jun-21 07:57N 44°06' E 036°38'4 9.4
2018-Jun-21 07:30N 44°05' E 036°33'5 9.4
2018-Jun-21 07:00N 44°02' E 036°27'6 9.4
2018-Jun-21 06:25N 43°60' E 036°20'4 9.3
2018-Jun-21 05:58N 43°58' E 036°15'96 8.8
2018-Jun-20 19:02N 43°14' E 034°16'1 8.8
2018-Jun-20 18:57N 43°14' E 034°15'4 8.7
2018-Jun-20 18:28N 43°12' E 034°10'4 8.6
2018-Jun-20 18:00N 43°10' E 034°05'4 8.5
2018-Jun-20 17:30N 43°08' E 034°00'4 8.8
2018-Jun-20 17:00N 43°06' E 033°55'4 8.8
2018-Jun-20 16:30N 43°04' E 033°49'4 8.9
2018-Jun-20 16:00N 43°02' E 033°44'4 8.7
2018-Jun-20 15:31N 43°00' E 033°39'5 8.9
2018-Jun-20 14:58N 42°58' E 033°33'13 9.3
2018-Jun-20 13:34N 42°52' E 033°17'1 9.3
2018-Jun-20 13:26N 42°52' E 033°15'4 9.2
2018-Jun-20 13:01N 42°50' E 033°11'7 9.2
2018-Jun-20 12:16N 42°47' E 033°02'4 9.2
2018-Jun-20 11:48N 42°45' E 032°57'3 9.0
2018-Jun-20 11:30N 42°44' E 032°54'38 9.0
2018-Jun-20 07:18N 42°26' E 032°08'9 8.9
2018-Jun-20 06:14N 42°22' E 031°56'2 9.0
2018-Jun-20 05:59N 42°21' E 031°54'6 8.9
2018-Jun-20 05:19N 42°18' E 031°47'3 8.7
2018-Jun-20 05:00N 42°17' E 031°43'4 8.5
2018-Jun-20 04:30N 42°15' E 031°38'4 8.7
2018-Jun-20 04:00N 42°13' E 031°33'35 8.5
2018-Jun-19 23:51N 41°57' E 030°51'3 8.3
2018-Jun-19 23:30N 41°56' E 030°47'4 8.4
2018-Jun-19 23:00N 41°54' E 030°42'4 8.5
2018-Jun-19 22:30N 41°52' E 030°37'4 8.4
2018-Jun-19 22:00N 41°50' E 030°32'4 8.4
2018-Jun-19 21:30N 41°48' E 030°27'4 8.5
2018-Jun-19 20:59N 41°46' E 030°22'4 8.6
2018-Jun-19 20:30N 41°45' E 030°17'4 8.7
2018-Jun-19 20:00N 41°43' E 030°12'4 8.7
2018-Jun-19 19:31N 41°41' E 030°07'4 8.7
2018-Jun-19 19:01N 41°39' E 030°01'4 8.6
2018-Jun-19 18:30N 41°37' E 029°56'4 8.7
2018-Jun-19 17:59N 41°35' E 029°51'4 8.5
2018-Jun-19 17:30N 41°33' E 029°46'4 7.3
2018-Jun-19 17:00N 41°31' E 029°42'4 7.2
2018-Jun-19 16:30N 41°29' E 029°38'4 7.7
2018-Jun-19 16:00N 41°28' E 029°33'4 7.8
2018-Jun-19 15:30N 41°25' E 029°29'4 7.4
2018-Jun-19 15:00N 41°24' E 029°24'4 6.8
2018-Jun-19 14:28N 41°22' E 029°20'2 3.2
2018-Jun-19 13:47N 41°21' E 029°18'2 7.4
2018-Jun-19 13:29N 41°19' E 029°16'3 7.4
2018-Jun-19 13:00N 41°17' E 029°13'158 6.2
2018-Jun-18 11:46N 40°01' E 026°10'8 7.5
2018-Jun-18 10:44N 39°59' E 026°01'2 9.3
2018-Jun-18 10:29N 39°57' E 025°58'141 4.2
2018-Jun-17 00:49N 37°36' E 025°53'3 8.2
2018-Jun-17 00:30N 37°34' E 025°53'4 7.8
2018-Jun-17 00:00N 37°30' E 025°54'213 7.4
2018-Jun-15 19:08N 34°45' E 028°40'1 7.9
2018-Jun-15 19:00N 34°44' E 028°41'10 7.7
2018-Jun-15 17:42N 34°36' E 028°49'2 7.6
2018-Jun-15 17:30N 34°35' E 028°50'4 7.6
2018-Jun-15 17:00N 34°32' E 028°53'4 7.7
2018-Jun-15 16:28N 34°29' E 028°56'22 6.3
2018-Jun-15 12:54N 34°13' E 029°15'3 7.5
2018-Jun-15 12:30N 34°11' E 029°18'4 7.5
2018-Jun-15 11:59N 34°08' E 029°21'91 9.0
2018-Jun-15 01:52N 33°01' E 030°36'10 8.2
2018-Jun-15 00:38N 32°53' E 030°44'82 7.6
2018-Jun-14 13:49N 31°53' E 031°50'9 7.9
2018-Jun-14 12:42N 31°48' E 031°59'  
Track history (hours):
 
Tides and Currents Weather Stations Pressure Air Temp Water Temp Dewpoint Dewpoint Depression Visibility Wind Speed Wind Dir Waves Ship Positions

Nissos Kythnos

Last reported at 2018-Jun-22 14:59 UTC. Time now 2018-Jun-22 15:14 UTC.
Position N 44°36' E 037°53'.

Length 249 m; draft 8 m.

Type: Ship. MMSI: 241132000.

Date/timePositionNaut miles runAvg speedWind from/ knotsBaromVisibWave heightAir tempDewpointWater temp
2018-Jun-22 14:59N 44°36' E 037°53'0 0.0
2018-Jun-22 14:29N 44°36' E 037°53'0 0.0
2018-Jun-22 13:59N 44°36' E 037°53'0 0.0
2018-Jun-22 13:29N 44°36' E 037°53'0 0.0
2018-Jun-22 12:59N 44°36' E 037°53'0 0.0
2018-Jun-22 12:29N 44°36' E 037°53'0 0.0
2018-Jun-22 11:59N 44°36' E 037°53'0 0.1
2018-Jun-22 11:29N 44°36' E 037°54'0 0.0
2018-Jun-22 10:59N 44°36' E 037°54'0 0.1
2018-Jun-22 10:29N 44°36' E 037°53'0 0.0
2018-Jun-22 09:59N 44°36' E 037°53'0 0.0
2018-Jun-22 09:29N 44°36' E 037°53'0 0.0
2018-Jun-22 08:59N 44°36' E 037°54'0 0.0
2018-Jun-22 08:29N 44°36' E 037°53'0 0.0
2018-Jun-22 07:59N 44°36' E 037°53'0 0.0
2018-Jun-22 07:29N 44°36' E 037°54'0 0.0
2018-Jun-22 06:59N 44°36' E 037°54'0 0.1
2018-Jun-22 06:29N 44°36' E 037°53'0 0.1
2018-Jun-22 05:59N 44°36' E 037°53'0 0.1
2018-Jun-22 05:29N 44°36' E 037°53'0 0.1
2018-Jun-22 04:59N 44°36' E 037°53'0 0.0
2018-Jun-22 04:29N 44°36' E 037°53'0 0.0
2018-Jun-22 03:59N 44°36' E 037°53'0 0.0
2018-Jun-22 03:29N 44°36' E 037°53'0 0.0
2018-Jun-22 02:59N 44°36' E 037°53'0 0.0
2018-Jun-22 02:29N 44°36' E 037°53'0 0.0
2018-Jun-22 01:59N 44°36' E 037°53'0 0.0
2018-Jun-22 01:29N 44°36' E 037°53'0 0.1
2018-Jun-22 00:59N 44°36' E 037°53'0 0.0
2018-Jun-22 00:29N 44°36' E 037°53'0 0.0
2018-Jun-21 23:59N 44°36' E 037°53'0 0.0
2018-Jun-21 23:29N 44°36' E 037°53'0 0.0
2018-Jun-21 22:59N 44°36' E 037°53'0 0.1
2018-Jun-21 22:29N 44°36' E 037°53'0 0.1
2018-Jun-21 21:59N 44°36' E 037°54'0 0.1
2018-Jun-21 21:29N 44°36' E 037°54'0 0.0
2018-Jun-21 20:59N 44°36' E 037°54'0 0.0
2018-Jun-21 20:29N 44°36' E 037°54'0 0.0
2018-Jun-21 19:59N 44°36' E 037°54'0 0.0
2018-Jun-21 19:29N 44°36' E 037°54'0 0.1
2018-Jun-21 18:59N 44°36' E 037°54'0 0.1
2018-Jun-21 18:29N 44°36' E 037°54'0 0.0
2018-Jun-21 17:59N 44°36' E 037°54'0 0.0
2018-Jun-21 17:29N 44°36' E 037°54'0 0.0
2018-Jun-21 16:59N 44°36' E 037°54'0 0.1
2018-Jun-21 16:29N 44°36' E 037°54'0 0.1
2018-Jun-21 15:59N 44°36' E 037°54'0 0.2
2018-Jun-21 15:30N 44°36' E 037°53'1 2.3
2018-Jun-21 15:00N 44°36' E 037°52'2 3.1
2018-Jun-21 14:30N 44°35' E 037°50'3 5.5
2018-Jun-21 14:00N 44°32' E 037°48'4 7.9
2018-Jun-21 13:30N 44°30' E 037°44'5 9.4
2018-Jun-21 13:00N 44°28' E 037°38'5 9.4
2018-Jun-21 12:30N 44°25' E 037°32'5 9.4
2018-Jun-21 12:00N 44°23' E 037°26'5 9.4
2018-Jun-21 11:30N 44°21' E 037°20'5 9.6
2018-Jun-21 11:00N 44°19' E 037°15'5 9.7
2018-Jun-21 10:30N 44°17' E 037°08'5 9.7
2018-Jun-21 10:00N 44°15' E 037°02'5 9.5
2018-Jun-21 09:30N 44°12' E 036°56'5 9.5
2018-Jun-21 08:58N 44°10' E 036°50'4 9.4
2018-Jun-21 08:30N 44°09' E 036°44'5 9.4
2018-Jun-21 07:57N 44°06' E 036°38'4 9.4
2018-Jun-21 07:30N 44°05' E 036°33'5 9.4
2018-Jun-21 07:00N 44°02' E 036°27'6 9.4
2018-Jun-21 06:25N 43°60' E 036°20'4 9.3
2018-Jun-21 05:58N 43°58' E 036°15'96 8.8
2018-Jun-20 19:02N 43°14' E 034°16'1 8.8
2018-Jun-20 18:57N 43°14' E 034°15'4 8.7
2018-Jun-20 18:28N 43°12' E 034°10'4 8.6
2018-Jun-20 18:00N 43°10' E 034°05'4 8.5
2018-Jun-20 17:30N 43°08' E 034°00'4 8.8
2018-Jun-20 17:00N 43°06' E 033°55'4 8.8
2018-Jun-20 16:30N 43°04' E 033°49'4 8.9
2018-Jun-20 16:00N 43°02' E 033°44'4 8.7
2018-Jun-20 15:31N 43°00' E 033°39'5 8.9
2018-Jun-20 14:58N 42°58' E 033°33'13 9.3
2018-Jun-20 13:34N 42°52' E 033°17'1 9.3
2018-Jun-20 13:26N 42°52' E 033°15'4 9.2
2018-Jun-20 13:01N 42°50' E 033°11'7 9.2
2018-Jun-20 12:16N 42°47' E 033°02'4 9.2
2018-Jun-20 11:48N 42°45' E 032°57'3 9.0
2018-Jun-20 11:30N 42°44' E 032°54'38 9.0
2018-Jun-20 07:18N 42°26' E 032°08'9 8.9
2018-Jun-20 06:14N 42°22' E 031°56'2 9.0
2018-Jun-20 05:59N 42°21' E 031°54'6 8.9
2018-Jun-20 05:19N 42°18' E 031°47'3 8.7
2018-Jun-20 05:00N 42°17' E 031°43'4 8.5
2018-Jun-20 04:30N 42°15' E 031°38'4 8.7
2018-Jun-20 04:00N 42°13' E 031°33'35 8.5
2018-Jun-19 23:51N 41°57' E 030°51'3 8.3
2018-Jun-19 23:30N 41°56' E 030°47'4 8.4
2018-Jun-19 23:00N 41°54' E 030°42'4 8.5
2018-Jun-19 22:30N 41°52' E 030°37'4 8.4
2018-Jun-19 22:00N 41°50' E 030°32'4 8.4
2018-Jun-19 21:30N 41°48' E 030°27'4 8.5
2018-Jun-19 20:59N 41°46' E 030°22'4 8.6
2018-Jun-19 20:30N 41°45' E 030°17'4 8.7
2018-Jun-19 20:00N 41°43' E 030°12'4 8.7
2018-Jun-19 19:31N 41°41' E 030°07'4 8.7
2018-Jun-19 19:01N 41°39' E 030°01'4 8.6
2018-Jun-19 18:30N 41°37' E 029°56'4 8.7
2018-Jun-19 17:59N 41°35' E 029°51'4 8.5
2018-Jun-19 17:30N 41°33' E 029°46'4 7.3
2018-Jun-19 17:00N 41°31' E 029°42'4 7.2
2018-Jun-19 16:30N 41°29' E 029°38'4 7.7
2018-Jun-19 16:00N 41°28' E 029°33'4 7.8
2018-Jun-19 15:30N 41°25' E 029°29'4 7.4
2018-Jun-19 15:00N 41°24' E 029°24'4 6.8
2018-Jun-19 14:28N 41°22' E 029°20'2 3.2
2018-Jun-19 13:47N 41°21' E 029°18'2 7.4
2018-Jun-19 13:29N 41°19' E 029°16'3 7.4
2018-Jun-19 13:00N 41°17' E 029°13'158 6.2
2018-Jun-18 11:46N 40°01' E 026°10'8 7.5
2018-Jun-18 10:44N 39°59' E 026°01'2 9.3
2018-Jun-18 10:29N 39°57' E 025°58'141 4.2
2018-Jun-17 00:49N 37°36' E 025°53'3 8.2
2018-Jun-17 00:30N 37°34' E 025°53'4 7.8
2018-Jun-17 00:00N 37°30' E 025°54'213 7.4
2018-Jun-15 19:08N 34°45' E 028°40'1 7.9
2018-Jun-15 19:00N 34°44' E 028°41'10 7.7
2018-Jun-15 17:42N 34°36' E 028°49'2 7.6
2018-Jun-15 17:30N 34°35' E 028°50'4 7.6
2018-Jun-15 17:00N 34°32' E 028°53'4 7.7
2018-Jun-15 16:28N 34°29' E 028°56'22 6.3
2018-Jun-15 12:54N 34°13' E 029°15'3 7.5
2018-Jun-15 12:30N 34°11' E 029°18'4 7.5
2018-Jun-15 11:59N 34°08' E 029°21'91 9.0
2018-Jun-15 01:52N 33°01' E 030°36'10 8.2
2018-Jun-15 00:38N 32°53' E 030°44'82 7.6
2018-Jun-14 13:49N 31°53' E 031°50'9 7.9
2018-Jun-14 12:42N 31°48' E 031°59'  

Dump ship's entire track history